sensor_id;sensor_type;location;lat;lon;timestamp;temperature;humidity
802;DHT22;383;48.766;9.270;2023-03-03T00:00:01;3.30;90.10
802;DHT22;383;48.766;9.270;2023-03-03T00:02:28;3.30;89.80
802;DHT22;383;48.766;9.270;2023-03-03T00:04:55;3.30;89.40
802;DHT22;383;48.766;9.270;2023-03-03T00:07:22;3.20;89.90
802;DHT22;383;48.766;9.270;2023-03-03T00:09:50;3.20;89.90
802;DHT22;383;48.766;9.270;2023-03-03T00:12:22;3.10;90.20
802;DHT22;383;48.766;9.270;2023-03-03T00:14:49;3.00;90.60
802;DHT22;383;48.766;9.270;2023-03-03T00:17:21;3.00;90.70
802;DHT22;383;48.766;9.270;2023-03-03T00:19:48;2.80;90.90
802;DHT22;383;48.766;9.270;2023-03-03T00:22:28;2.80;91.50
802;DHT22;383;48.766;9.270;2023-03-03T00:24:59;2.70;91.20
802;DHT22;383;48.766;9.270;2023-03-03T00:27:29;2.60;91.70
802;DHT22;383;48.766;9.270;2023-03-03T00:29:57;2.60;91.90
802;DHT22;383;48.766;9.270;2023-03-03T00:32:26;2.60;92.00
802;DHT22;383;48.766;9.270;2023-03-03T00:34:54;2.50;92.10
802;DHT22;383;48.766;9.270;2023-03-03T00:37:29;2.50;91.90
802;DHT22;383;48.766;9.270;2023-03-03T00:40:20;2.50;92.00
802;DHT22;383;48.766;9.270;2023-03-03T00:42:50;2.40;92.20
802;DHT22;383;48.766;9.270;2023-03-03T00:45:25;2.40;92.20
802;DHT22;383;48.766;9.270;2023-03-03T00:47:52;2.40;92.10
802;DHT22;383;48.766;9.270;2023-03-03T00:50:28;2.30;92.30
802;DHT22;383;48.766;9.270;2023-03-03T00:53:04;2.30;92.40
802;DHT22;383;48.766;9.270;2023-03-03T00:55:32;2.30;92.50
802;DHT22;383;48.766;9.270;2023-03-03T00:57:59;2.30;92.30
802;DHT22;383;48.766;9.270;2023-03-03T01:00:26;2.20;92.20
802;DHT22;383;48.766;9.270;2023-03-03T01:02:53;2.10;92.70
802;DHT22;383;48.766;9.270;2023-03-03T01:05:24;2.10;92.50
802;DHT22;383;48.766;9.270;2023-03-03T01:07:56;2.10;92.50
802;DHT22;383;48.766;9.270;2023-03-03T01:10:23;2.10;92.70
802;DHT22;383;48.766;9.270;2023-03-03T01:12:52;2.00;92.60
802;DHT22;383;48.766;9.270;2023-03-03T01:15:19;2.00;92.90
802;DHT22;383;48.766;9.270;2023-03-03T01:17:46;1.90;93.00
802;DHT22;383;48.766;9.270;2023-03-03T01:20:13;1.90;93.10
802;DHT22;383;48.766;9.270;2023-03-03T01:26:11;1.80;93.30
802;DHT22;383;48.766;9.270;2023-03-03T01:28:54;1.70;93.60
802;DHT22;383;48.766;9.270;2023-03-03T01:31:26;1.70;93.60
802;DHT22;383;48.766;9.270;2023-03-03T01:33:55;1.70;93.70
802;DHT22;383;48.766;9.270;2023-03-03T01:36:27;1.60;94.10
802;DHT22;383;48.766;9.270;2023-03-03T01:38:57;1.60;94.10
802;DHT22;383;48.766;9.270;2023-03-03T01:41:26;1.60;94.00
802;DHT22;383;48.766;9.270;2023-03-03T01:43:55;1.60;94.10
802;DHT22;383;48.766;9.270;2023-03-03T01:46:47;1.60;94.30
802;DHT22;383;48.766;9.270;2023-03-03T01:49:19;1.60;94.30
802;DHT22;383;48.766;9.270;2023-03-03T01:51:50;1.50;94.10
802;DHT22;383;48.766;9.270;2023-03-03T01:54:22;1.50;94.40
802;DHT22;383;48.766;9.270;2023-03-03T01:56:51;1.50;94.30
802;DHT22;383;48.766;9.270;2023-03-03T01:59:22;1.50;93.90
802;DHT22;383;48.766;9.270;2023-03-03T02:02:09;1.50;93.90
802;DHT22;383;48.766;9.270;2023-03-03T02:04:38;1.40;94.10
802;DHT22;383;48.766;9.270;2023-03-03T02:07:07;1.40;94.70
802;DHT22;383;48.766;9.270;2023-03-03T02:09:41;1.40;94.60
802;DHT22;383;48.766;9.270;2023-03-03T02:12:12;1.40;94.60
802;DHT22;383;48.766;9.270;2023-03-03T02:14:40;1.40;94.40
802;DHT22;383;48.766;9.270;2023-03-03T02:17:07;1.40;94.30
802;DHT22;383;48.766;9.270;2023-03-03T02:19:39;1.30;94.60
802;DHT22;383;48.766;9.270;2023-03-03T02:22:08;1.40;94.70
802;DHT22;383;48.766;9.270;2023-03-03T02:24:40;1.40;94.20
802;DHT22;383;48.766;9.270;2023-03-03T02:27:09;1.40;93.90
802;DHT22;383;48.766;9.270;2023-03-03T02:29:38;1.40;94.10
802;DHT22;383;48.766;9.270;2023-03-03T02:32:05;1.40;94.10
802;DHT22;383;48.766;9.270;2023-03-03T02:34:47;1.30;94.60
802;DHT22;383;48.766;9.270;2023-03-03T02:37:14;1.30;94.60
802;DHT22;383;48.766;9.270;2023-03-03T02:39:40;1.30;94.50
802;DHT22;383;48.766;9.270;2023-03-03T02:42:12;1.30;94.50
802;DHT22;383;48.766;9.270;2023-03-03T02:44:40;1.20;94.70
802;DHT22;383;48.766;9.270;2023-03-03T02:47:06;1.20;94.90
802;DHT22;383;48.766;9.270;2023-03-03T02:49:35;1.20;95.00
802;DHT22;383;48.766;9.270;2023-03-03T02:52:05;1.30;95.20
802;DHT22;383;48.766;9.270;2023-03-03T02:54:34;1.30;95.30
802;DHT22;383;48.766;9.270;2023-03-03T02:57:01;1.40;95.20
802;DHT22;383;48.766;9.270;2023-03-03T02:59:30;1.50;95.30
802;DHT22;383;48.766;9.270;2023-03-03T03:01:57;1.60;94.70
802;DHT22;383;48.766;9.270;2023-03-03T03:04:25;1.70;94.50
802;DHT22;383;48.766;9.270;2023-03-03T03:06:53;1.80;94.10
802;DHT22;383;48.766;9.270;2023-03-03T03:09:21;1.90;93.90
802;DHT22;383;48.766;9.270;2023-03-03T03:11:48;1.90;93.90
802;DHT22;383;48.766;9.270;2023-03-03T03:14:15;2.00;93.90
802;DHT22;383;48.766;9.270;2023-03-03T03:16:43;2.10;93.60
802;DHT22;383;48.766;9.270;2023-03-03T03:19:10;2.10;93.40
802;DHT22;383;48.766;9.270;2023-03-03T03:21:37;2.10;93.60
802;DHT22;383;48.766;9.270;2023-03-03T03:24:04;2.30;93.00
802;DHT22;383;48.766;9.270;2023-03-03T03:26:31;2.40;92.60
802;DHT22;383;48.766;9.270;2023-03-03T03:28:57;2.40;92.50
802;DHT22;383;48.766;9.270;2023-03-03T03:31:24;2.40;92.60
802;DHT22;383;48.766;9.270;2023-03-03T03:33:52;2.50;92.00
802;DHT22;383;48.766;9.270;2023-03-03T03:36:19;2.60;92.00
802;DHT22;383;48.766;9.270;2023-03-03T03:38:46;2.70;91.70
802;DHT22;383;48.766;9.270;2023-03-03T03:41:13;2.70;91.60
802;DHT22;383;48.766;9.270;2023-03-03T03:43:40;2.80;91.10
802;DHT22;383;48.766;9.270;2023-03-03T03:48:34;2.90;91.10
802;DHT22;383;48.766;9.270;2023-03-03T03:51:02;2.90;91.10
802;DHT22;383;48.766;9.270;2023-03-03T03:53:29;2.90;91.40
802;DHT22;383;48.766;9.270;2023-03-03T03:55:56;2.80;91.50
802;DHT22;383;48.766;9.270;2023-03-03T03:58:23;2.90;91.60
802;DHT22;383;48.766;9.270;2023-03-03T04:00:50;3.00;91.30
802;DHT22;383;48.766;9.270;2023-03-03T04:03:16;3.00;91.30
802;DHT22;383;48.766;9.270;2023-03-03T04:05:43;2.90;91.70
802;DHT22;383;48.766;9.270;2023-03-03T04:08:11;3.00;91.70
802;DHT22;383;48.766;9.270;2023-03-03T04:10:38;3.00;92.00
802;DHT22;383;48.766;9.270;2023-03-03T04:13:05;3.00;92.00
802;DHT22;383;48.766;9.270;2023-03-03T04:15:32;3.00;91.90
802;DHT22;383;48.766;9.270;2023-03-03T04:17:58;3.10;91.60
802;DHT22;383;48.766;9.270;2023-03-03T04:20:25;3.10;91.70
802;DHT22;383;48.766;9.270;2023-03-03T04:22:52;3.20;91.40
802;DHT22;383;48.766;9.270;2023-03-03T04:25:20;3.30;91.30
802;DHT22;383;48.766;9.270;2023-03-03T04:27:47;3.30;91.40
802;DHT22;383;48.766;9.270;2023-03-03T04:30:15;3.40;90.80
802;DHT22;383;48.766;9.270;2023-03-03T04:32:42;3.40;90.70
802;DHT22;383;48.766;9.270;2023-03-03T04:35:09;3.50;90.70
802;DHT22;383;48.766;9.270;2023-03-03T04:37:36;3.50;90.70
802;DHT22;383;48.766;9.270;2023-03-03T04:40:05;3.50;90.80
802;DHT22;383;48.766;9.270;2023-03-03T04:42:33;3.60;90.60
802;DHT22;383;48.766;9.270;2023-03-03T04:45:00;3.60;90.60
802;DHT22;383;48.766;9.270;2023-03-03T04:47:27;3.60;90.70
802;DHT22;383;48.766;9.270;2023-03-03T04:49:53;3.70;90.50
802;DHT22;383;48.766;9.270;2023-03-03T04:52:20;3.70;90.40
802;DHT22;383;48.766;9.270;2023-03-03T04:54:47;3.80;90.50
802;DHT22;383;48.766;9.270;2023-03-03T04:57:13;3.70;90.60
802;DHT22;383;48.766;9.270;2023-03-03T04:59:42;3.80;90.30
802;DHT22;383;48.766;9.270;2023-03-03T05:02:08;3.90;90.30
802;DHT22;383;48.766;9.270;2023-03-03T05:04:35;3.90;90.30
802;DHT22;383;48.766;9.270;2023-03-03T05:07:02;3.90;90.30
802;DHT22;383;48.766;9.270;2023-03-03T05:09:29;3.90;90.40
802;DHT22;383;48.766;9.270;2023-03-03T05:11:55;3.80;90.60
802;DHT22;383;48.766;9.270;2023-03-03T05:14:22;3.90;90.70
802;DHT22;383;48.766;9.270;2023-03-03T05:16:50;3.90;90.60
802;DHT22;383;48.766;9.270;2023-03-03T05:19:17;3.90;90.70
802;DHT22;383;48.766;9.270;2023-03-03T05:21:43;3.90;90.60
802;DHT22;383;48.766;9.270;2023-03-03T05:24:11;3.90;90.60
802;DHT22;383;48.766;9.270;2023-03-03T05:26:39;3.90;90.70
802;DHT22;383;48.766;9.270;2023-03-03T05:29:06;4.00;90.70
802;DHT22;383;48.766;9.270;2023-03-03T05:31:33;4.00;90.60
802;DHT22;383;48.766;9.270;2023-03-03T05:34:01;4.10;90.70
802;DHT22;383;48.766;9.270;2023-03-03T05:36:28;4.10;90.40
802;DHT22;383;48.766;9.270;2023-03-03T05:38:54;4.10;90.60
802;DHT22;383;48.766;9.270;2023-03-03T05:41:21;4.10;90.50
802;DHT22;383;48.766;9.270;2023-03-03T05:43:48;4.20;90.30
802;DHT22;383;48.766;9.270;2023-03-03T05:46:15;4.20;90.20
802;DHT22;383;48.766;9.270;2023-03-03T05:48:42;4.20;90.10
802;DHT22;383;48.766;9.270;2023-03-03T05:51:11;4.20;89.90
802;DHT22;383;48.766;9.270;2023-03-03T05:53:38;4.30;89.60
802;DHT22;383;48.766;9.270;2023-03-03T05:56:05;4.30;89.20
802;DHT22;383;48.766;9.270;2023-03-03T05:58:32;4.40;87.40
802;DHT22;383;48.766;9.270;2023-03-03T06:00:58;4.40;86.40
802;DHT22;383;48.766;9.270;2023-03-03T06:03:25;4.40;85.60
802;DHT22;383;48.766;9.270;2023-03-03T06:05:52;4.40;84.90
802;DHT22;383;48.766;9.270;2023-03-03T06:08:20;4.40;85.20
802;DHT22;383;48.766;9.270;2023-03-03T06:10:46;4.40;85.30
802;DHT22;383;48.766;9.270;2023-03-03T06:13:13;4.30;84.90
802;DHT22;383;48.766;9.270;2023-03-03T06:15:40;4.30;84.80
802;DHT22;383;48.766;9.270;2023-03-03T06:18:06;4.30;84.40
802;DHT22;383;48.766;9.270;2023-03-03T06:20:33;4.30;84.10
802;DHT22;383;48.766;9.270;2023-03-03T06:23:01;4.40;84.50
802;DHT22;383;48.766;9.270;2023-03-03T06:25:29;4.40;84.00
802;DHT22;383;48.766;9.270;2023-03-03T06:27:56;4.40;84.00
802;DHT22;383;48.766;9.270;2023-03-03T06:30:22;4.30;84.10
802;DHT22;383;48.766;9.270;2023-03-03T06:32:51;4.30;84.00
802;DHT22;383;48.766;9.270;2023-03-03T06:35:18;4.30;83.70
802;DHT22;383;48.766;9.270;2023-03-03T06:37:44;4.30;83.70
802;DHT22;383;48.766;9.270;2023-03-03T06:40:12;4.40;83.70
802;DHT22;383;48.766;9.270;2023-03-03T06:42:40;4.40;83.70
802;DHT22;383;48.766;9.270;2023-03-03T06:45:08;4.40;84.30
802;DHT22;383;48.766;9.270;2023-03-03T06:47:34;4.40;83.90
802;DHT22;383;48.766;9.270;2023-03-03T06:50:01;4.40;84.30
802;DHT22;383;48.766;9.270;2023-03-03T06:52:28;4.40;84.10
802;DHT22;383;48.766;9.270;2023-03-03T06:54:57;4.40;83.90
802;DHT22;383;48.766;9.270;2023-03-03T06:57:26;4.40;84.40
802;DHT22;383;48.766;9.270;2023-03-03T06:59:57;4.50;84.00
802;DHT22;383;48.766;9.270;2023-03-03T07:02:25;4.60;83.90
802;DHT22;383;48.766;9.270;2023-03-03T07:04:55;4.60;83.70
802;DHT22;383;48.766;9.270;2023-03-03T07:07:23;4.70;83.60
802;DHT22;383;48.766;9.270;2023-03-03T07:09:52;4.80;82.60
802;DHT22;383;48.766;9.270;2023-03-03T07:12:22;4.80;82.70
802;DHT22;383;48.766;9.270;2023-03-03T07:14:51;4.80;83.40
802;DHT22;383;48.766;9.270;2023-03-03T07:17:24;4.80;83.10
802;DHT22;383;48.766;9.270;2023-03-03T07:19:51;4.90;82.20
802;DHT22;383;48.766;9.270;2023-03-03T07:22:20;5.00;81.80
802;DHT22;383;48.766;9.270;2023-03-03T07:24:49;5.00;81.60
802;DHT22;383;48.766;9.270;2023-03-03T07:27:20;5.00;81.60
802;DHT22;383;48.766;9.270;2023-03-03T07:29:50;5.00;81.80
802;DHT22;383;48.766;9.270;2023-03-03T07:32:39;5.00;81.00
802;DHT22;383;48.766;9.270;2023-03-03T07:35:23;5.10;80.20
802;DHT22;383;48.766;9.270;2023-03-03T07:37:52;5.10;80.30
802;DHT22;383;48.766;9.270;2023-03-03T07:40:30;5.10;79.90
802;DHT22;383;48.766;9.270;2023-03-03T07:43:01;5.10;80.40
802;DHT22;383;48.766;9.270;2023-03-03T07:45:30;5.10;80.20
802;DHT22;383;48.766;9.270;2023-03-03T07:48:04;5.20;80.20
802;DHT22;383;48.766;9.270;2023-03-03T07:50:35;5.40;79.80
802;DHT22;383;48.766;9.270;2023-03-03T07:53:02;5.50;79.00
802;DHT22;383;48.766;9.270;2023-03-03T07:55:33;5.70;77.70
802;DHT22;383;48.766;9.270;2023-03-03T07:58:17;5.80;77.80
802;DHT22;383;48.766;9.270;2023-03-03T08:03:53;6.10;77.40
802;DHT22;383;48.766;9.270;2023-03-03T08:06:34;6.30;77.50
802;DHT22;383;48.766;9.270;2023-03-03T08:12:28;6.80;74.50
802;DHT22;383;48.766;9.270;2023-03-03T08:14:57;7.10;71.70
802;DHT22;383;48.766;9.270;2023-03-03T08:17:35;7.10;68.90
802;DHT22;383;48.766;9.270;2023-03-03T08:22:49;7.00;70.50
802;DHT22;383;48.766;9.270;2023-03-03T08:25:16;6.90;71.20
802;DHT22;383;48.766;9.270;2023-03-03T08:27:43;6.90;70.00
802;DHT22;383;48.766;9.270;2023-03-03T08:30:11;6.80;70.80
802;DHT22;383;48.766;9.270;2023-03-03T08:32:37;6.70;71.50
802;DHT22;383;48.766;9.270;2023-03-03T08:35:06;6.70;71.30
802;DHT22;383;48.766;9.270;2023-03-03T08:37:33;6.70;70.70
802;DHT22;383;48.766;9.270;2023-03-03T08:40:00;6.60;71.70
802;DHT22;383;48.766;9.270;2023-03-03T08:42:27;6.50;71.70
802;DHT22;383;48.766;9.270;2023-03-03T08:44:54;6.40;72.10
802;DHT22;383;48.766;9.270;2023-03-03T08:47:21;6.40;72.80
802;DHT22;383;48.766;9.270;2023-03-03T08:49:48;6.30;73.70
802;DHT22;383;48.766;9.270;2023-03-03T08:52:17;6.40;73.40
802;DHT22;383;48.766;9.270;2023-03-03T08:54:43;6.30;72.60
802;DHT22;383;48.766;9.270;2023-03-03T08:57:11;6.40;73.20
802;DHT22;383;48.766;9.270;2023-03-03T08:59:37;6.40;72.90
802;DHT22;383;48.766;9.270;2023-03-03T09:02:04;6.40;73.00
802;DHT22;383;48.766;9.270;2023-03-03T09:04:31;6.60;72.40
802;DHT22;383;48.766;9.270;2023-03-03T09:06:58;6.70;70.90
802;DHT22;383;48.766;9.270;2023-03-03T09:09:26;6.70;70.50
802;DHT22;383;48.766;9.270;2023-03-03T09:11:57;6.80;71.20
802;DHT22;383;48.766;9.270;2023-03-03T09:14:27;7.00;71.70
802;DHT22;383;48.766;9.270;2023-03-03T09:24:23;7.40;68.90
802;DHT22;383;48.766;9.270;2023-03-03T09:26:52;7.50;69.10
802;DHT22;383;48.766;9.270;2023-03-03T09:29:24;7.60;67.60
802;DHT22;383;48.766;9.270;2023-03-03T09:31:52;7.70;67.80
802;DHT22;383;48.766;9.270;2023-03-03T09:36:48;7.70;67.40
802;DHT22;383;48.766;9.270;2023-03-03T09:42:08;7.90;68.60
802;DHT22;383;48.766;9.270;2023-03-03T09:55:38;8.00;67.10
802;DHT22;383;48.766;9.270;2023-03-03T09:58:23;8.00;67.20
802;DHT22;383;48.766;9.270;2023-03-03T10:00:58;8.10;68.60
802;DHT22;383;48.766;9.270;2023-03-03T10:03:59;8.00;67.20
802;DHT22;383;48.766;9.270;2023-03-03T10:06:33;8.20;67.20
802;DHT22;383;48.766;9.270;2023-03-03T10:09:16;8.20;67.40
802;DHT22;383;48.766;9.270;2023-03-03T10:11:58;8.30;67.00
802;DHT22;383;48.766;9.270;2023-03-03T10:14:42;8.40;67.00
802;DHT22;383;48.766;9.270;2023-03-03T10:17:25;8.50;65.90
802;DHT22;383;48.766;9.270;2023-03-03T10:20:10;8.60;66.40
802;DHT22;383;48.766;9.270;2023-03-03T10:22:45;8.70;66.70
802;DHT22;383;48.766;9.270;2023-03-03T10:25:24;8.80;67.40
802;DHT22;383;48.766;9.270;2023-03-03T10:28:03;9.00;66.40
802;DHT22;383;48.766;9.270;2023-03-03T10:30:41;9.30;64.50
